sensor_id;sensor_type;location;lat;lon;timestamp;temperature;humidity
77100;SHT31;66602;48.922;2.414;2023-04-25T00:01:03;8.47;90.27
77100;SHT31;66602;48.922;2.414;2023-04-25T00:03:30;8.37;90.44
77100;SHT31;66602;48.922;2.414;2023-04-25T00:05:58;8.40;90.21
77100;SHT31;66602;48.922;2.414;2023-04-25T00:08:27;8.17;90.58
77100;SHT31;66602;48.922;2.414;2023-04-25T00:10:52;8.17;89.83
77100;SHT31;66602;48.922;2.414;2023-04-25T00:13:18;7.99;90.95
77100;SHT31;66602;48.922;2.414;2023-04-25T00:15:44;7.73;91.08
77100;SHT31;66602;48.922;2.414;2023-04-25T00:18:11;7.63;91.88
77100;SHT31;66602;48.922;2.414;2023-04-25T00:20:36;7.46;92.64
77100;SHT31;66602;48.922;2.414;2023-04-25T00:23:02;7.30;92.87
77100;SHT31;66602;48.922;2.414;2023-04-25T00:25:28;7.27;93.30
77100;SHT31;66602;48.922;2.414;2023-04-25T00:27:54;7.43;92.82
77100;SHT31;66602;48.922;2.414;2023-04-25T00:30:20;7.37;92.72
77100;SHT31;66602;48.922;2.414;2023-04-25T00:32:45;7.36;93.02
77100;SHT31;66602;48.922;2.414;2023-04-25T00:35:11;7.27;93.23
77100;SHT31;66602;48.922;2.414;2023-04-25T00:37:36;7.40;93.21
77100;SHT31;66602;48.922;2.414;2023-04-25T00:40:05;7.67;91.35
77100;SHT31;66602;48.922;2.414;2023-04-25T00:42:31;7.54;91.49
77100;SHT31;66602;48.922;2.414;2023-04-25T00:44:58;7.65;90.73
77100;SHT31;66602;48.922;2.414;2023-04-25T00:47:25;7.65;91.13
77100;SHT31;66602;48.922;2.414;2023-04-25T00:49:50;7.70;90.82
77100;SHT31;66602;48.922;2.414;2023-04-25T00:52:16;7.63;90.60
77100;SHT31;66602;48.922;2.414;2023-04-25T00:54:42;7.47;91.56
77100;SHT31;66602;48.922;2.414;2023-04-25T00:57:08;7.36;92.47
77100;SHT31;66602;48.922;2.414;2023-04-25T00:59:34;7.26;92.82
77100;SHT31;66602;48.922;2.414;2023-04-25T01:02:01;7.23;93.13
77100;SHT31;66602;48.922;2.414;2023-04-25T01:04:27;7.24;93.47
77100;SHT31;66602;48.922;2.414;2023-04-25T01:06:53;7.23;92.92
77100;SHT31;66602;48.922;2.414;2023-04-25T01:09:19;7.28;92.92
77100;SHT31;66602;48.922;2.414;2023-04-25T01:11:45;7.19;92.92
77100;SHT31;66602;48.922;2.414;2023-04-25T01:14:11;7.09;93.50
77100;SHT31;66602;48.922;2.414;2023-04-25T01:16:36;7.16;93.37
77100;SHT31;66602;48.922;2.414;2023-04-25T01:19:07;7.13;93.19
77100;SHT31;66602;48.922;2.414;2023-04-25T01:21:34;7.42;91.41
77100;SHT31;66602;48.922;2.414;2023-04-25T01:24:00;7.27;91.63
77100;SHT31;66602;48.922;2.414;2023-04-25T01:26:26;7.16;91.85
77100;SHT31;66602;48.922;2.414;2023-04-25T01:28:51;6.95;92.53
77100;SHT31;66602;48.922;2.414;2023-04-25T01:31:18;6.95;93.14
77100;SHT31;66602;48.922;2.414;2023-04-25T01:33:44;6.79;93.34
77100;SHT31;66602;48.922;2.414;2023-04-25T01:36:10;6.76;93.71
77100;SHT31;66602;48.922;2.414;2023-04-25T01:38:36;7.17;91.51
77100;SHT31;66602;48.922;2.414;2023-04-25T01:41:01;7.15;91.44
77100;SHT31;66602;48.922;2.414;2023-04-25T01:43:27;7.13;91.55
77100;SHT31;66602;48.922;2.414;2023-04-25T01:45:53;7.16;91.37
77100;SHT31;66602;48.922;2.414;2023-04-25T01:48:18;6.96;92.00
77100;SHT31;66602;48.922;2.414;2023-04-25T01:50:44;7.07;91.77
77100;SHT31;66602;48.922;2.414;2023-04-25T01:53:12;7.28;90.44
77100;SHT31;66602;48.922;2.414;2023-04-25T01:55:38;6.97;91.45
77100;SHT31;66602;48.922;2.414;2023-04-25T01:58:04;6.93;92.23
77100;SHT31;66602;48.922;2.414;2023-04-25T02:00:34;6.92;92.22
77100;SHT31;66602;48.922;2.414;2023-04-25T02:03:00;6.68;92.49
77100;SHT31;66602;48.922;2.414;2023-04-25T02:05:26;6.58;93.39
77100;SHT31;66602;48.922;2.414;2023-04-25T02:07:51;6.64;93.97
77100;SHT31;66602;48.922;2.414;2023-04-25T02:10:17;6.58;94.04
77100;SHT31;66602;48.922;2.414;2023-04-25T02:12:42;6.54;93.80
77100;SHT31;66602;48.922;2.414;2023-04-25T02:15:08;6.72;94.28
77100;SHT31;66602;48.922;2.414;2023-04-25T02:17:34;6.95;92.95
77100;SHT31;66602;48.922;2.414;2023-04-25T02:19:59;7.17;91.80
77100;SHT31;66602;48.922;2.414;2023-04-25T02:22:25;7.36;90.69
77100;SHT31;66602;48.922;2.414;2023-04-25T02:24:52;7.46;90.09
77100;SHT31;66602;48.922;2.414;2023-04-25T02:27:18;7.36;90.40
77100;SHT31;66602;48.922;2.414;2023-04-25T02:29:43;7.13;91.42
77100;SHT31;66602;48.922;2.414;2023-04-25T02:32:09;7.07;92.14
77100;SHT31;66602;48.922;2.414;2023-04-25T02:34:34;7.12;91.84
77100;SHT31;66602;48.922;2.414;2023-04-25T02:37:00;6.96;92.41
77100;SHT31;66602;48.922;2.414;2023-04-25T02:39:25;6.93;92.66
77100;SHT31;66602;48.922;2.414;2023-04-25T02:41:52;6.96;91.84
77100;SHT31;66602;48.922;2.414;2023-04-25T02:44:18;6.89;92.53
77100;SHT31;66602;48.922;2.414;2023-04-25T02:46:43;6.91;92.74
77100;SHT31;66602;48.922;2.414;2023-04-25T02:49:08;7.06;92.16
77100;SHT31;66602;48.922;2.414;2023-04-25T02:51:34;7.10;92.08
77100;SHT31;66602;48.922;2.414;2023-04-25T02:54:00;7.16;91.95
77100;SHT31;66602;48.922;2.414;2023-04-25T02:56:25;7.37;90.06
77100;SHT31;66602;48.922;2.414;2023-04-25T02:58:52;7.50;90.08
77100;SHT31;66602;48.922;2.414;2023-04-25T03:01:17;7.58;89.63
77100;SHT31;66602;48.922;2.414;2023-04-25T03:03:43;7.50;90.48
77100;SHT31;66602;48.922;2.414;2023-04-25T03:06:08;7.37;91.03
77100;SHT31;66602;48.922;2.414;2023-04-25T03:08:34;7.46;90.29
77100;SHT31;66602;48.922;2.414;2023-04-25T03:10:59;7.34;91.08
77100;SHT31;66602;48.922;2.414;2023-04-25T03:13:25;7.33;90.93
77100;SHT31;66602;48.922;2.414;2023-04-25T03:15:52;7.27;91.06
77100;SHT31;66602;48.922;2.414;2023-04-25T03:18:18;7.31;90.94
77100;SHT31;66602;48.922;2.414;2023-04-25T03:20:43;7.23;91.65
77100;SHT31;66602;48.922;2.414;2023-04-25T03:23:09;7.36;91.19
77100;SHT31;66602;48.922;2.414;2023-04-25T03:25:34;7.27;90.95
77100;SHT31;66602;48.922;2.414;2023-04-25T03:28:00;7.16;91.78
77100;SHT31;66602;48.922;2.414;2023-04-25T03:30:25;7.30;91.28
77100;SHT31;66602;48.922;2.414;2023-04-25T03:32:51;7.27;91.75
77100;SHT31;66602;48.922;2.414;2023-04-25T03:35:16;7.47;90.22
77100;SHT31;66602;48.922;2.414;2023-04-25T03:37:42;7.44;90.55
77100;SHT31;66602;48.922;2.414;2023-04-25T03:40:11;7.37;91.01
77100;SHT31;66602;48.922;2.414;2023-04-25T03:42:36;7.42;90.60
77100;SHT31;66602;48.922;2.414;2023-04-25T03:45:02;7.42;90.64
77100;SHT31;66602;48.922;2.414;2023-04-25T03:47:27;7.31;91.27
77100;SHT31;66602;48.922;2.414;2023-04-25T03:49:53;7.31;91.80
77100;SHT31;66602;48.922;2.414;2023-04-25T03:52:18;7.30;92.02
77100;SHT31;66602;48.922;2.414;2023-04-25T03:54:44;7.31;91.81
77100;SHT31;66602;48.922;2.414;2023-04-25T03:57:09;7.38;91.35
77100;SHT31;66602;48.922;2.414;2023-04-25T03:59:35;7.51;90.82
77100;SHT31;66602;48.922;2.414;2023-04-25T04:02:01;7.53;90.81
77100;SHT31;66602;48.922;2.414;2023-04-25T04:04:26;7.51;91.36
77100;SHT31;66602;48.922;2.414;2023-04-25T04:06:52;7.54;91.36
77100;SHT31;66602;48.922;2.414;2023-04-25T04:09:18;7.63;91.08
77100;SHT31;66602;48.922;2.414;2023-04-25T04:11:44;7.60;91.67
77100;SHT31;66602;48.922;2.414;2023-04-25T04:14:10;7.61;91.19
77100;SHT31;66602;48.922;2.414;2023-04-25T04:16:35;7.65;91.39
77100;SHT31;66602;48.922;2.414;2023-04-25T04:19:01;7.61;90.63
77100;SHT31;66602;48.922;2.414;2023-04-25T04:21:27;7.55;90.87
77100;SHT31;66602;48.922;2.414;2023-04-25T04:23:52;7.60;90.75
77100;SHT31;66602;48.922;2.414;2023-04-25T04:26:20;7.60;91.25
77100;SHT31;66602;48.922;2.414;2023-04-25T04:28:49;7.57;91.42
77100;SHT31;66602;48.922;2.414;2023-04-25T04:31:16;7.55;91.47
77100;SHT31;66602;48.922;2.414;2023-04-25T04:33:43;7.53;91.67
77100;SHT31;66602;48.922;2.414;2023-04-25T04:36:09;7.53;91.58
77100;SHT31;66602;48.922;2.414;2023-04-25T04:38:35;7.54;91.57
77100;SHT31;66602;48.922;2.414;2023-04-25T04:41:01;7.54;90.74
77100;SHT31;66602;48.922;2.414;2023-04-25T04:43:27;7.54;90.82
77100;SHT31;66602;48.922;2.414;2023-04-25T04:45:53;7.48;91.02
77100;SHT31;66602;48.922;2.414;2023-04-25T04:48:21;7.47;91.54
77100;SHT31;66602;48.922;2.414;2023-04-25T04:50:47;7.53;91.29
77100;SHT31;66602;48.922;2.414;2023-04-25T04:53:13;7.46;91.08
77100;SHT31;66602;48.922;2.414;2023-04-25T04:55:39;7.44;91.45
77100;SHT31;66602;48.922;2.414;2023-04-25T04:58:06;7.48;91.15
77100;SHT31;66602;48.922;2.414;2023-04-25T05:00:32;7.50;91.12
77100;SHT31;66602;48.922;2.414;2023-04-25T05:02:58;7.48;91.45
77100;SHT31;66602;48.922;2.414;2023-04-25T05:05:24;7.55;91.18
77100;SHT31;66602;48.922;2.414;2023-04-25T05:07:50;7.51;91.22
77100;SHT31;66602;48.922;2.414;2023-04-25T05:10:16;7.58;91.03
77100;SHT31;66602;48.922;2.414;2023-04-25T05:12:42;7.55;90.85
77100;SHT31;66602;48.922;2.414;2023-04-25T05:15:08;7.57;90.77
77100;SHT31;66602;48.922;2.414;2023-04-25T05:17:34;7.55;91.14
77100;SHT31;66602;48.922;2.414;2023-04-25T05:19:59;7.55;91.30
77100;SHT31;66602;48.922;2.414;2023-04-25T05:22:25;7.54;91.33
77100;SHT31;66602;48.922;2.414;2023-04-25T05:24:51;7.58;91.31
77100;SHT31;66602;48.922;2.414;2023-04-25T05:27:18;7.58;91.50
77100;SHT31;66602;48.922;2.414;2023-04-25T05:29:44;7.58;91.74
77100;SHT31;66602;48.922;2.414;2023-04-25T05:32:09;7.65;91.54
77100;SHT31;66602;48.922;2.414;2023-04-25T05:34:35;7.68;91.51
77100;SHT31;66602;48.922;2.414;2023-04-25T05:37:02;7.68;91.31
77100;SHT31;66602;48.922;2.414;2023-04-25T05:39:28;7.71;91.31
77100;SHT31;66602;48.922;2.414;2023-04-25T05:41:53;7.71;91.02
77100;SHT31;66602;48.922;2.414;2023-04-25T05:44:19;7.73;90.92
77100;SHT31;66602;48.922;2.414;2023-04-25T05:46:44;7.71;90.88
77100;SHT31;66602;48.922;2.414;2023-04-25T05:49:10;7.74;90.79
77100;SHT31;66602;48.922;2.414;2023-04-25T05:51:35;7.74;91.18
77100;SHT31;66602;48.922;2.414;2023-04-25T05:54:01;7.78;91.43
77100;SHT31;66602;48.922;2.414;2023-04-25T05:56:27;7.81;91.29
77100;SHT31;66602;48.922;2.414;2023-04-25T05:58:52;7.84;91.09
77100;SHT31;66602;48.922;2.414;2023-04-25T06:01:18;7.85;91.23
77100;SHT31;66602;48.922;2.414;2023-04-25T06:03:43;7.85;91.60
77100;SHT31;66602;48.922;2.414;2023-04-25T06:06:11;7.91;91.30
77100;SHT31;66602;48.922;2.414;2023-04-25T06:08:37;7.88;90.82
77100;SHT31;66602;48.922;2.414;2023-04-25T06:11:03;7.89;90.53
77100;SHT31;66602;48.922;2.414;2023-04-25T06:13:29;7.91;90.59
77100;SHT31;66602;48.922;2.414;2023-04-25T06:15:55;7.95;89.86
77100;SHT31;66602;48.922;2.414;2023-04-25T06:18:20;7.94;89.45
77100;SHT31;66602;48.922;2.414;2023-04-25T06:20:46;7.99;89.87
77100;SHT31;66602;48.922;2.414;2023-04-25T06:23:11;8.07;89.68
77100;SHT31;66602;48.922;2.414;2023-04-25T06:25:37;8.09;89.66
77100;SHT31;66602;48.922;2.414;2023-04-25T06:28:02;8.17;89.63
77100;SHT31;66602;48.922;2.414;2023-04-25T06:30:28;8.19;89.32
77100;SHT31;66602;48.922;2.414;2023-04-25T06:32:53;8.30;88.92
77100;SHT31;66602;48.922;2.414;2023-04-25T06:35:19;8.30;89.17
77100;SHT31;66602;48.922;2.414;2023-04-25T06:37:45;8.32;89.24
77100;SHT31;66602;48.922;2.414;2023-04-25T06:40:10;8.26;88.84
77100;SHT31;66602;48.922;2.414;2023-04-25T06:42:36;8.12;89.02
77100;SHT31;66602;48.922;2.414;2023-04-25T06:45:02;8.06;89.57
77100;SHT31;66602;48.922;2.414;2023-04-25T06:47:27;8.07;89.21
77100;SHT31;66602;48.922;2.414;2023-04-25T06:49:53;8.13;88.99
77100;SHT31;66602;48.922;2.414;2023-04-25T06:52:18;8.16;88.18
77100;SHT31;66602;48.922;2.414;2023-04-25T06:54:44;8.10;88.75
77100;SHT31;66602;48.922;2.414;2023-04-25T06:57:10;8.10;88.76
77100;SHT31;66602;48.922;2.414;2023-04-25T06:59:35;8.17;88.87
77100;SHT31;66602;48.922;2.414;2023-04-25T07:02:01;8.25;88.58
77100;SHT31;66602;48.922;2.414;2023-04-25T07:04:26;8.35;88.05
77100;SHT31;66602;48.922;2.414;2023-04-25T07:06:52;8.37;87.25
77100;SHT31;66602;48.922;2.414;2023-04-25T07:09:17;8.33;87.70
77100;SHT31;66602;48.922;2.414;2023-04-25T07:11:43;8.23;87.81
77100;SHT31;66602;48.922;2.414;2023-04-25T07:14:08;8.13;87.45
77100;SHT31;66602;48.922;2.414;2023-04-25T07:16:34;7.99;87.73
77100;SHT31;66602;48.922;2.414;2023-04-25T07:18:59;7.92;88.16
77100;SHT31;66602;48.922;2.414;2023-04-25T07:21:25;7.79;88.16
77100;SHT31;66602;48.922;2.414;2023-04-25T07:23:58;7.79;88.79
77100;SHT31;66602;48.922;2.414;2023-04-25T07:26:33;7.86;88.52
77100;SHT31;66602;48.922;2.414;2023-04-25T07:28:59;7.94;88.03
77100;SHT31;66602;48.922;2.414;2023-04-25T07:31:25;7.86;87.87
77100;SHT31;66602;48.922;2.414;2023-04-25T07:33:51;7.84;88.39
77100;SHT31;66602;48.922;2.414;2023-04-25T07:36:17;7.75;88.13
77100;SHT31;66602;48.922;2.414;2023-04-25T07:38:42;7.75;87.84
77100;SHT31;66602;48.922;2.414;2023-04-25T07:41:08;7.88;87.87
77100;SHT31;66602;48.922;2.414;2023-04-25T07:43:34;8.01;87.40
77100;SHT31;66602;48.922;2.414;2023-04-25T07:45:59;8.13;85.44
77100;SHT31;66602;48.922;2.414;2023-04-25T07:48:25;8.25;85.51
77100;SHT31;66602;48.922;2.414;2023-04-25T07:50:52;8.43;85.40
77100;SHT31;66602;48.922;2.414;2023-04-25T07:53:22;8.66;83.58
77100;SHT31;66602;48.922;2.414;2023-04-25T07:55:48;9.12;83.44
77100;SHT31;66602;48.922;2.414;2023-04-25T07:58:16;9.50;81.70
77100;SHT31;66602;48.922;2.414;2023-04-25T08:00:46;10.41;78.49
77100;SHT31;66602;48.922;2.414;2023-04-25T08:03:12;11.54;74.54
77100;SHT31;66602;48.922;2.414;2023-04-25T08:05:38;13.12;68.41
77100;SHT31;66602;48.922;2.414;2023-04-25T08:08:03;14.96;60.48
77100;SHT31;66602;48.922;2.414;2023-04-25T08:10:33;14.99;59.76
77100;SHT31;66602;48.922;2.414;2023-04-25T08:13:14;16.85;55.90
77100;SHT31;66602;48.922;2.414;2023-04-25T08:22:44;16.67;52.25
77100;SHT31;66602;48.922;2.414;2023-04-25T08:25:12;15.77;55.34
77100;SHT31;66602;48.922;2.414;2023-04-25T08:27:37;16.45;56.32
77100;SHT31;66602;48.922;2.414;2023-04-25T08:30:03;14.59;57.65
77100;SHT31;66602;48.922;2.414;2023-04-25T08:32:29;13.14;60.21
77100;SHT31;66602;48.922;2.414;2023-04-25T08:34:57;12.43;64.70
77100;SHT31;66602;48.922;2.414;2023-04-25T08:37:22;11.68;67.75
77100;SHT31;66602;48.922;2.414;2023-04-25T08:39:51;10.59;70.47
77100;SHT31;66602;48.922;2.414;2023-04-25T08:46:21;9.86;73.74
77100;SHT31;66602;48.922;2.414;2023-04-25T08:48:48;9.57;74.90
77100;SHT31;66602;48.922;2.414;2023-04-25T08:51:22;9.26;75.21
77100;SHT31;66602;48.922;2.414;2023-04-25T08:53:51;9.46;76.24
77100;SHT31;66602;48.922;2.414;2023-04-25T08:56:18;9.63;75.20
77100;SHT31;66602;48.922;2.414;2023-04-25T08:58:47;9.87;74.75
77100;SHT31;66602;48.922;2.414;2023-04-25T09:01:13;9.98;73.37
77100;SHT31;66602;48.922;2.414;2023-04-25T09:03:38;10.66;72.77
77100;SHT31;66602;48.922;2.414;2023-04-25T09:06:04;10.97;70.53
77100;SHT31;66602;48.922;2.414;2023-04-25T09:08:31;11.47;68.27
77100;SHT31;66602;48.922;2.414;2023-04-25T09:10:57;11.91;67.65
77100;SHT31;66602;48.922;2.414;2023-04-25T09:13:27;12.40;67.52
77100;SHT31;66602;48.922;2.414;2023-04-25T09:15:57;12.39;66.29
77100;SHT31;66602;48.922;2.414;2023-04-25T09:18:28;11.92;66.23
77100;SHT31;66602;48.922;2.414;2023-04-25T09:21:10;11.65;67.13
77100;SHT31;66602;48.922;2.414;2023-04-25T09:24:16;11.26;69.48
77100;SHT31;66602;48.922;2.414;2023-04-25T09:26:45;11.00;69.51
77100;SHT31;66602;48.922;2.414;2023-04-25T09:29:24;10.82;69.97
77100;SHT31;66602;48.922;2.414;2023-04-25T09:32:21;10.73;70.40
77100;SHT31;66602;48.922;2.414;2023-04-25T09:35:05;11.00;70.49
77100;SHT31;66602;48.922;2.414;2023-04-25T09:37:30;11.45;68.58
77100;SHT31;66602;48.922;2.414;2023-04-25T09:39:58;12.13;65.61
77100;SHT31;66602;48.922;2.414;2023-04-25T09:42:30;15.48;56.59
77100;SHT31;66602;48.922;2.414;2023-04-25T09:44:58;16.12;53.71
77100;SHT31;66602;48.922;2.414;2023-04-25T09:47:25;17.58;50.93
77100;SHT31;66602;48.922;2.414;2023-04-25T09:49:53;17.58;48.40
77100;SHT31;66602;48.922;2.414;2023-04-25T09:52:21;17.18;51.26
77100;SHT31;66602;48.922;2.414;2023-04-25T09:54:48;19.38;46.93
77100;SHT31;66602;48.922;2.414;2023-04-25T09:59:48;18.88;44.09
77100;SHT31;66602;48.922;2.414;2023-04-25T10:02:16;17.35;51.02
77100;SHT31;66602;48.922;2.414;2023-04-25T10:04:42;15.31;54.00
77100;SHT31;66602;48.922;2.414;2023-04-25T10:07:10;13.49;60.81
77100;SHT31;66602;48.922;2.414;2023-04-25T10:09:38;12.42;62.08
77100;SHT31;66602;48.922;2.414;2023-04-25T10:12:06;11.89;65.77
77100;SHT31;66602;48.922;2.414;2023-04-25T10:14:32;11.57;65.23
77100;SHT31;66602;48.922;2.414;2023-04-25T10:16:58;11.78;68.46
77100;SHT31;66602;48.922;2.414;2023-04-25T10:19:26;13.69;60.94
77100;SHT31;66602;48.922;2.414;2023-04-25T10:22:07;15.46;54.21
77100;SHT31;66602;48.922;2.414;2023-04-25T10:24:35;16.49;55.44
77100;SHT31;66602;48.922;2.414;2023-04-25T10:27:01;17.52;51.48
77100;SHT31;66602;48.922;2.414;2023-04-25T10:29:27;16.84;47.52
77100;SHT31;66602;48.922;2.414;2023-04-25T10:31:53;15.19;53.23
77100;SHT31;66602;48.922;2.414;2023-04-25T10:34:19;14.09;54.89
77100;SHT31;66602;48.922;2.414;2023-04-25T10:36:52;13.82;59.70
77100;SHT31;66602;48.922;2.414;2023-04-25T10:39:26;13.87;57.66
77100;SHT31;66602;48.922;2.414;2023-04-25T10:41:55;13.66;57.74
77100;SHT31;66602;48.922;2.414;2023-04-25T10:44:21;13.38;58.26
77100;SHT31;66602;48.922;2.414;2023-04-25T10:46:47;13.43;60.51
77100;SHT31;66602;48.922;2.414;2023-04-25T10:49:35;13.46;58.65
77100;SHT31;66602;48.922;2.414;2023-04-25T10:52:24;13.08;58.94
77100;SHT31;66602;48.922;2.414;2023-04-25T10:54:57;12.60;59.35
77100;SHT31;66602;48.922;2.414;2023-04-25T10:57:27;12.56;63.22
77100;SHT31;66602;48.922;2.414;2023-04-25T10:59:58;12.54;60.21
77100;SHT31;66602;48.922;2.414;2023-04-25T11:02:26;12.73;62.05
77100;SHT31;66602;48.922;2.414;2023-04-25T11:04:53;13.53;60.02
77100;SHT31;66602;48.922;2.414;2023-04-25T11:10:02;16.04;49.45
77100;SHT31;66602;48.922;2.414;2023-04-25T11:12:30;15.53;50.55
77100;SHT31;66602;48.922;2.414;2023-04-25T11:15:14;14.92;53.05
77100;SHT31;66602;48.922;2.414;2023-04-25T11:17:40;14.18;55.66
77100;SHT31;66602;48.922;2.414;2023-04-25T11:20:07;13.83;57.75
77100;SHT31;66602;48.922;2.414;2023-04-25T11:22:37;13.60;60.47
77100;SHT31;66602;48.922;2.414;2023-04-25T11:25:10;13.69;57.84
77100;SHT31;66602;48.922;2.414;2023-04-25T11:27:51;13.67;57.53
77100;SHT31;66602;48.922;2.414;2023-04-25T11:30:17;13.63;57.63
77100;SHT31;66602;48.922;2.414;2023-04-25T11:32:43;13.83;56.31
77100;SHT31;66602;48.922;2.414;2023-04-25T11:35:09;14.00;56.32
77100;SHT31;66602;48.922;2.414;2023-04-25T11:37:36;13.79;55.07
77100;SHT31;66602;48.922;2.414;2023-04-25T11:40:05;13.45;56.04
77100;SHT31;66602;48.922;2.414;2023-04-25T11:42:42;13.01;56.60
77100;SHT31;66602;48.922;2.414;2023-04-25T11:45:08;12.60;59.09
77100;SHT31;66602;48.922;2.414;2023-04-25T11:47:34;12.28;61.40
77100;SHT31;66602;48.922;2.414;2023-04-25T11:50:02;11.85;61.12
77100;SHT31;66602;48.922;2.414;2023-04-25T11:52:45;11.43;63.38
77100;SHT31;66602;48.922;2.414;2023-04-25T11:55:15;11.17;64.95
77100;SHT31;66602;48.922;2.414;2023-04-25T11:57:42;10.89;65.65
77100;SHT31;66602;48.922;2.414;2023-04-25T12:00:13;10.73;66.11
77100;SHT31;66602;48.922;2.414;2023-04-25T12:02:43;10.66;68.07
77100;SHT31;66602;48.922;2.414;2023-04-25T12:05:10;10.66;66.03
77100;SHT31;66602;48.922;2.414;2023-04-25T12:07:36;10.66;66.44
77100;SHT31;66602;48.922;2.414;2023-04-25T12:10:11;10.73;66.63
77100;SHT31;66602;48.922;2.414;2023-04-25T12:12:41;10.92;64.95
77100;SHT31;66602;48.922;2.414;2023-04-25T12:15:11;11.24;64.52
77100;SHT31;66602;48.922;2.414;2023-04-25T12:17:38;11.50;63.87
77100;SHT31;66602;48.922;2.414;2023-04-25T12:22:34;11.92;61.86
77100;SHT31;66602;48.922;2.414;2023-04-25T12:25:00;12.18;61.19
77100;SHT31;66602;48.922;2.414;2023-04-25T12:27:25;12.30;60.83
77100;SHT31;66602;48.922;2.414;2023-04-25T12:29:53;12.67;61.41
77100;SHT31;66602;48.922;2.414;2023-04-25T12:32:19;13.19;58.40
77100;SHT31;66602;48.922;2.414;2023-04-25T12:34:45;13.67;58.36
77100;SHT31;66602;48.922;2.414;2023-04-25T12:37:10;14.22;55.51
77100;SHT31;66602;48.922;2.414;2023-04-25T12:39:37;14.86;54.87
77100;SHT31;66602;48.922;2.414;2023-04-25T12:42:03;15.22;53.82
77100;SHT31;66602;48.922;2.414;2023-04-25T12:44:29;15.51;52.26
77100;SHT31;66602;48.922;2.414;2023-04-25T12:46:55;15.88;53.62
77100;SHT31;66602;48.922;2.414;2023-04-25T12:49:20;15.97;50.87
77100;SHT31;66602;48.922;2.414;2023-04-25T12:51:46;15.72;53.55
77100;SHT31;66602;48.922;2.414;2023-04-25T12:54:12;15.55;50.04
77100;SHT31;66602;48.922;2.414;2023-04-25T12:56:38;15.48;51.51
77100;SHT31;66602;48.922;2.414;2023-04-25T12:59:34;15.41;50.40
77100;SHT31;66602;48.922;2.414;2023-04-25T13:02:00;15.34;50.83
77100;SHT31;66602;48.922;2.414;2023-04-25T13:04:51;15.57;51.88
77100;SHT31;66602;48.922;2.414;2023-04-25T13:07:16;15.53;47.42
77100;SHT31;66602;48.922;2.414;2023-04-25T13:09:43;15.26;53.05
77100;SHT31;66602;48.922;2.414;2023-04-25T13:28:27;14.96;53.36
77100;SHT31;66602;48.922;2.414;2023-04-25T13:30:53;15.29;50.51
77100;SHT31;66602;48.922;2.414;2023-04-25T13:43:42;16.23;48.14
77100;SHT31;66602;48.922;2.414;2023-04-25T13:46:13;15.85;51.22
77100;SHT31;66602;48.922;2.414;2023-04-25T13:48:42;15.10;50.81
77100;SHT31;66602;48.922;2.414;2023-04-25T13:51:14;14.55;52.84
77100;SHT31;66602;48.922;2.414;2023-04-25T13:53:40;13.76;54.03
77100;SHT31;66602;48.922;2.414;2023-04-25T13:56:06;13.12;55.74
77100;SHT31;66602;48.922;2.414;2023-04-25T13:58:33;12.67;56.47
77100;SHT31;66602;48.922;2.414;2023-04-25T14:00:58;12.44;58.72
77100;SHT31;66602;48.922;2.414;2023-04-25T14:03:26;12.19;56.88
77100;SHT31;66602;48.922;2.414;2023-04-25T14:05:52;12.15;58.02
77100;SHT31;66602;48.922;2.414;2023-04-25T14:08:17;12.32;59.53
77100;SHT31;66602;48.922;2.414;2023-04-25T14:10:43;12.28;54.85
77100;SHT31;66602;48.922;2.414;2023-04-25T14:13:08;12.11;53.32
77100;SHT31;66602;48.922;2.414;2023-04-25T14:15:35;11.96;54.21
77100;SHT31;66602;48.922;2.414;2023-04-25T14:18:01;11.95;56.66
77100;SHT31;66602;48.922;2.414;2023-04-25T14:20:26;11.95;55.70
77100;SHT31;66602;48.922;2.414;2023-04-25T14:22:52;11.96;56.85
77100;SHT31;66602;48.922;2.414;2023-04-25T14:25:20;12.03;57.04
77100;SHT31;66602;48.922;2.414;2023-04-25T14:27:45;12.21;57.72
77100;SHT31;66602;48.922;2.414;2023-04-25T14:30:15;12.30;56.98
77100;SHT31;66602;48.922;2.414;2023-04-25T14:32:41;12.39;57.06
77100;SHT31;66602;48.922;2.414;2023-04-25T14:35:07;12.52;59.63
77100;SHT31;66602;48.922;2.414;2023-04-25T14:37:32;12.68;58.66
77100;SHT31;66602;48.922;2.414;2023-04-25T14:39:58;12.95;59.14
77100;SHT31;66602;48.922;2.414;2023-04-25T14:42:23;13.10;57.42
77100;SHT31;66602;48.922;2.414;2023-04-25T14:44:49;13.18;56.23
77100;SHT31;66602;48.922;2.414;2023-04-25T14:47:15;13.28;57.41
77100;SHT31;66602;48.922;2.414;2023-04-25T14:49:41;13.55;58.79
77100;SHT31;66602;48.922;2.414;2023-04-25T14:52:06;13.69;54.95
77100;SHT31;66602;48.922;2.414;2023-04-25T14:54:32;13.86;53.86
77100;SHT31;66602;48.922;2.414;2023-04-25T14:56:58;14.00;53.73
77100;SHT31;66602;48.922;2.414;2023-04-25T14:59:23;13.97;52.83
77100;SHT31;66602;48.922;2.414;2023-04-25T15:01:50;14.14;53.66
77100;SHT31;66602;48.922;2.414;2023-04-25T15:04:15;14.25;51.44
77100;SHT31;66602;48.922;2.414;2023-04-25T15:06:42;13.89;49.78
77100;SHT31;66602;48.922;2.414;2023-04-25T15:09:08;13.82;53.45
77100;SHT31;66602;48.922;2.414;2023-04-25T15:11:36;13.97;53.13
77100;SHT31;66602;48.922;2.414;2023-04-25T15:14:02;14.38;52.39
77100;SHT31;66602;48.922;2.414;2023-04-25T15:16:27;14.61;48.67
77100;SHT31;66602;48.922;2.414;2023-04-25T15:18:53;14.51;51.51
77100;SHT31;66602;48.922;2.414;2023-04-25T15:21:19;14.48;50.58
77100;SHT31;66602;48.922;2.414;2023-04-25T15:23:46;14.58;51.70
77100;SHT31;66602;48.922;2.414;2023-04-25T15:26:12;14.65;50.40
77100;SHT31;66602;48.922;2.414;2023-04-25T15:28:37;14.95;51.10
77100;SHT31;66602;48.922;2.414;2023-04-25T15:31:03;15.26;51.13
77100;SHT31;66602;48.922;2.414;2023-04-25T15:33:28;15.43;47.87
77100;SHT31;66602;48.922;2.414;2023-04-25T15:35:54;15.40;49.67
77100;SHT31;66602;48.922;2.414;2023-04-25T15:38:19;15.34;48.32
77100;SHT31;66602;48.922;2.414;2023-04-25T15:40:45;14.99;48.44
77100;SHT31;66602;48.922;2.414;2023-04-25T15:43:10;15.06;48.69
77100;SHT31;66602;48.922;2.414;2023-04-25T15:45:40;15.79;48.28
77100;SHT31;66602;48.922;2.414;2023-04-25T15:48:06;16.02;47.55
77100;SHT31;66602;48.922;2.414;2023-04-25T15:50:32;16.15;46.29
77100;SHT31;66602;48.922;2.414;2023-04-25T15:52:57;16.06;48.88
77100;SHT31;66602;48.922;2.414;2023-04-25T15:55:23;16.34;44.30
77100;SHT31;66602;48.922;2.414;2023-04-25T15:57:51;16.90;43.50
77100;SHT31;66602;48.922;2.414;2023-04-25T16:00:17;17.75;44.79
77100;SHT31;66602;48.922;2.414;2023-04-25T16:02:44;18.71;42.23
77100;SHT31;66602;48.922;2.414;2023-04-25T16:05:11;17.69;42.29
77100;SHT31;66602;48.922;2.414;2023-04-25T16:07:38;16.57;42.70
77100;SHT31;66602;48.922;2.414;2023-04-25T16:10:04;15.94;44.29
77100;SHT31;66602;48.922;2.414;2023-04-25T16:12:30;15.75;47.34
77100;SHT31;66602;48.922;2.414;2023-04-25T16:14:56;15.47;48.30
77100;SHT31;66602;48.922;2.414;2023-04-25T16:17:26;14.83;48.58
77100;SHT31;66602;48.922;2.414;2023-04-25T16:19:55;14.35;50.11
77100;SHT31;66602;48.922;2.414;2023-04-25T16:22:21;13.82;49.45
77100;SHT31;66602;48.922;2.414;2023-04-25T16:24:46;13.52;48.61